Time;durP1;ratioP1;P1;durP2;ratioP2;P2;SDS_P1;SDS_P2;PMS_P1;PMS_P2;Temp;Humidity;BMP_temperature;BMP_pressure;BME280_temperature;BME280_humidity;BME280_pressure;Samples;Min_cycle;Max_cycle;Signal;HPM_P1;HPM_P2
2022/12/30 00:01:20;;;;;;;7.43;1.30;;;17.70;1.00;;;;;;5093259;28;20050;-37
2022/12/30 00:03:47;;;;;;;6.95;1.70;;;17.70;1.00;;;;;;5093165;28;20043;-37
2022/12/30 00:06:17;;;;;;;6.13;1.92;;;17.70;1.00;;;;;;5093246;28;20050;-37
2022/12/30 00:08:45;;;;;;;5.57;1.95;;;17.60;1.00;;;;;;5093264;28;20043;-37
2022/12/30 00:11:33;;;;;;;5.05;1.00;;;17.60;1.00;;;;;;5093167;28;20083;-37
2022/12/30 00:34:15;;;;;;;4.50;1.42;;;17.40;1.00;;;;;;5092316;28;20039;-37
2022/12/30 00:36:43;;;;;;;5.15;1.48;;;17.30;1.00;;;;;;5092750;28;20040;-37
2022/12/30 00:39:10;;;;;;;3.28;1.20;;;17.30;1.00;;;;;;5092674;28;20479;-38
2022/12/30 00:44:22;;;;;;;6.22;1.45;;;17.30;1.00;;;;;;5092348;28;20097;-37
2022/12/30 00:46:49;;;;;;;5.50;1.25;;;17.30;1.00;;;;;;5092593;28;20490;-38
2022/12/30 00:57:33;;;;;;;6.10;1.92;;;17.20;1.00;;;;;;5092321;28;20086;-37
2022/12/30 01:00:00;;;;;;;8.50;1.10;;;17.20;1.00;;;;;;5092677;28;20093;-36
2022/12/30 01:02:27;;;;;;;6.80;1.33;;;17.10;1.00;;;;;;5092268;28;20036;-37
2022/12/30 01:04:54;;;;;;;4.97;1.00;;;17.10;1.00;;;;;;5092148;28;20210;-37
2022/12/30 01:07:21;;;;;;;7.35;1.52;;;17.10;1.00;;;;;;5092328;28;20406;-37
2022/12/30 01:09:48;;;;;;;5.72;2.42;;;17.10;1.00;;;;;;5092148;28;20044;-36
2022/12/30 01:12:15;;;;;;;8.70;1.90;;;17.10;1.00;;;;;;5091965;28;20059;-36
2022/12/30 01:14:51;;;;;;;5.10;1.35;;;17.10;1.00;;;;;;5091903;28;20067;-36
2022/12/30 01:17:21;;;;;;;6.10;1.35;;;17.00;1.00;;;;;;5092093;28;20040;-37
2022/12/30 01:19:49;;;;;;;6.40;2.25;;;17.00;1.00;;;;;;5092095;28;20554;-36
2022/12/30 01:22:16;;;;;;;8.10;2.60;;;17.00;1.00;;;;;;5073690;28;20044;-38
2022/12/30 01:24:43;;;;;;;5.22;1.73;;;17.00;1.00;;;;;;5091782;28;20487;-38
2022/12/30 01:27:11;;;;;;;6.95;1.95;;;16.90;1.00;;;;;;5091966;28;20185;-37
2022/12/30 01:29:41;;;;;;;9.00;1.98;;;16.90;1.00;;;;;;5091870;28;20040;-37
2022/12/30 01:32:15;;;;;;;5.00;1.48;;;16.90;1.00;;;;;;5091854;28;20047;-37
2022/12/30 01:34:43;;;;;;;6.28;2.90;;;16.90;1.00;;;;;;5091713;28;20044;-37
2022/12/30 01:37:10;;;;;;;7.63;1.75;;;16.90;1.00;;;;;;5091738;28;20564;-38
2022/12/30 01:39:37;;;;;;;3.55;1.15;;;16.80;1.00;;;;;;5091928;28;20054;-37
2022/12/30 01:42:22;;;;;;;7.65;1.95;;;16.80;1.00;;;;;;5091922;28;20048;-38
2022/12/30 01:44:49;;;;;;;6.60;1.77;;;16.80;1.00;;;;;;5091745;28;20036;-38
2022/12/30 01:47:41;;;;;;;8.88;1.35;;;16.80;1.00;;;;;;5091902;28;20097;-38
2022/12/30 01:50:10;;;;;;;5.38;1.63;;;16.80;1.00;;;;;;5091869;28;20041;-37
2022/12/30 01:52:48;;;;;;;5.88;2.03;;;16.80;1.00;;;;;;5091450;28;20060;-38
2022/12/30 01:55:21;;;;;;;5.88;2.05;;;16.80;1.00;;;;;;5091808;28;20047;-38
2022/12/30 01:57:50;;;;;;;4.45;1.42;;;16.70;1.00;;;;;;5056963;28;20539;-38
2022/12/30 02:00:18;;;;;;;7.95;1.45;;;16.70;1.00;;;;;;5091658;28;20096;-36
2022/12/30 02:02:45;;;;;;;12.35;2.17;;;16.70;1.00;;;;;;5091278;28;20044;-37
2022/12/30 02:05:13;;;;;;;6.65;1.33;;;16.70;1.00;;;;;;5091588;28;20072;-36
2022/12/30 02:07:47;;;;;;;8.00;2.20;;;16.70;1.00;;;;;;5091613;28;20048;-37
2022/12/30 02:10:15;;;;;;;5.78;1.60;;;16.70;1.00;;;;;;5091619;28;20070;-37
2022/12/30 02:12:41;;;;;;;7.55;1.50;;;16.60;1.00;;;;;;5091051;28;20070;-36
2022/12/30 02:15:09;;;;;;;3.75;1.65;;;16.60;1.00;;;;;;5057070;28;20526;-37
2022/12/30 02:18:05;;;;;;;4.57;1.27;;;16.60;1.00;;;;;;5091485;28;20036;-36
2022/12/30 02:20:55;;;;;;;6.43;1.80;;;16.60;1.00;;;;;;5091312;28;20036;-36
2022/12/30 02:23:54;;;;;;;6.35;1.48;;;16.60;1.00;;;;;;5091161;28;20040;-36
2022/12/30 02:26:48;;;;;;;7.30;2.15;;;16.60;1.00;;;;;;5066550;28;20059;-38
2022/12/30 02:29:48;;;;;;;6.75;1.20;;;16.50;1.00;;;;;;5091245;28;20048;-37
2022/12/30 02:32:48;;;;;;;3.17;1.27;;;16.50;1.00;;;;;;5091306;28;20072;-37
2022/12/30 02:35:43;;;;;;;6.07;1.83;;;16.50;1.00;;;;;;5091334;28;20415;-37
2022/12/30 02:38:25;;;;;;;9.68;1.38;;;16.50;1.00;;;;;;5091367;28;20514;-37
2022/12/30 02:47:13;;;;;;;6.05;1.40;;;16.40;1.00;;;;;;5074686;28;20120;-36
2022/12/30 02:49:42;;;;;;;4.47;0.90;;;16.40;1.00;;;;;;5074659;28;20507;-37
2022/12/30 02:52:18;;;;;;;4.15;1.02;;;16.40;1.00;;;;;;5074579;28;20139;-37
2022/12/30 02:54:49;;;;;;;4.25;1.15;;;16.40;1.00;;;;;;5074482;28;20102;-37
2022/12/30 02:57:28;;;;;;;8.48;1.40;;;16.40;1.00;;;;;;5074356;28;20136;-37
2022/12/30 03:06:24;;;;;;;6.60;1.20;;;16.30;1.00;;;;;;5074323;28;20052;-36
2022/12/30 03:09:01;;;;;;;6.43;1.27;;;16.30;1.00;;;;;;5074217;28;20041;-37
2022/12/30 03:11:37;;;;;;;4.03;1.10;;;16.30;1.00;;;;;;5074285;28;20047;-36
2022/12/30 03:14:35;;;;;;;8.02;1.65;;;16.30;1.00;;;;;;5073756;28;20040;-37
2022/12/30 03:17:08;;;;;;;4.47;1.20;;;16.30;1.00;;;;;;5070154;28;20461;-37
2022/12/30 03:19:40;;;;;;;7.72;2.13;;;16.30;1.00;;;;;;5074129;28;20049;-37
2022/12/30 03:27:03;;;;;;;8.02;1.33;;;16.30;1.00;;;;;;5073907;28;20041;-37
2022/12/30 03:27:44;;;;;;;7.68;1.45;;;16.20;1.00;;;;;;5073787;28;20044;-37
2022/12/30 03:30:12;;;;;;;4.68;1.20;;;16.20;1.00;;;;;;5073861;28;20098;-37
2022/12/30 03:32:39;;;;;;;7.85;1.30;;;16.20;1.00;;;;;;5073287;28;20048;-36
2022/12/30 03:35:06;;;;;;;6.32;1.60;;;16.20;1.00;;;;;;5073823;28;20040;-36
2022/12/30 03:37:55;;;;;;;5.50;2.20;;;16.20;1.00;;;;;;5073710;28;20052;-36
2022/12/30 03:40:37;;;;;;;8.27;1.92;;;16.20;1.00;;;;;;5073484;28;20071;-36
2022/12/30 03:43:06;;;;;;;5.33;1.57;;;16.20;1.00;;;;;;5073379;28;20049;-36
2022/12/30 03:45:33;;;;;;;4.25;1.77;;;16.20;1.00;;;;;;5073507;28;20075;-36
2022/12/30 03:48:00;;;;;;;5.78;1.52;;;16.10;1.00;;;;;;5055553;28;20048;-36
2022/12/30 03:50:27;;;;;;;4.15;1.10;;;16.10;1.00;;;;;;5073183;28;20044;-36
2022/12/30 03:52:54;;;;;;;5.32;2.05;;;16.10;1.00;;;;;;5072103;28;20122;-37
2022/12/30 03:55:20;;;;;;;5.30;1.05;;;16.10;1.00;;;;;;5073290;28;20111;-37
2022/12/30 03:57:47;;;;;;;6.82;1.35;;;16.10;1.00;;;;;;5073274;28;20488;-37
2022/12/30 04:00:14;;;;;;;4.53;1.27;;;16.10;1.00;;;;;;5073351;28;20068;-36
2022/12/30 04:02:41;;;;;;;8.65;1.73;;;16.10;1.00;;;;;;5072736;28;20459;-36
2022/12/30 04:05:08;;;;;;;5.70;1.63;;;16.10;1.00;;;;;;5073001;28;20043;-36
2022/12/30 04:07:35;;;;;;;5.32;1.60;;;16.10;1.00;;;;;;5073091;28;20090;-36
2022/12/30 04:10:03;;;;;;;6.30;1.90;;;16.00;1.00;;;;;;5073059;28;20107;-37
2022/12/30 04:12:31;;;;;;;3.70;1.23;;;16.00;1.00;;;;;;5072879;28;20505;-36
2022/12/30 04:14:57;;;;;;;5.53;1.42;;;16.00;1.00;;;;;;5072942;28;20040;-45
2022/12/30 04:17:24;;;;;;;7.00;1.92;;;16.00;1.00;;;;;;5074029;28;20491;-37
2022/12/30 04:19:51;;;;;;;8.98;1.40;;;16.00;1.00;;;;;;5084422;28;20115;-37
2022/12/30 04:22:18;;;;;;;6.00;1.92;;;16.00;1.00;;;;;;5084240;28;20054;-36
2022/12/30 04:24:44;;;;;;;6.72;1.38;;;16.00;1.00;;;;;;5081427;28;20044;-36
2022/12/30 04:27:11;;;;;;;8.18;2.80;;;16.00;1.00;;;;;;5089364;28;20039;-36
2022/12/30 04:29:38;;;;;;;4.30;1.67;;;16.00;1.00;;;;;;5088630;28;20063;-36
2022/12/30 04:32:05;;;;;;;3.45;1.15;;;15.90;1.00;;;;;;5088225;28;20051;-36
2022/12/30 04:34:31;;;;;;;9.73;2.38;;;15.90;1.00;;;;;;5092306;28;20040;-37
2022/12/30 04:36:58;;;;;;;4.85;1.50;;;15.90;1.00;;;;;;5092799;28;20040;-36
2022/12/30 04:39:25;;;;;;;6.28;1.30;;;15.90;1.00;;;;;;5091158;28;20567;-36
2022/12/30 04:41:52;;;;;;;7.10;1.52;;;15.90;1.00;;;;;;5080583;28;20045;-37
2022/12/30 04:44:18;;;;;;;6.75;1.58;;;15.90;1.00;;;;;;5089752;28;20097;-36
2022/12/30 04:46:45;;;;;;;6.40;1.20;;;15.90;1.00;;;;;;5092568;28;20052;-36
2022/12/30 04:49:12;;;;;;;7.22;2.13;;;15.90;1.00;;;;;;5092811;28;20403;-36
2022/12/30 04:51:39;;;;;;;5.72;2.28;;;15.90;1.00;;;;;;5092444;28;20044;-36
2022/12/30 04:54:05;;;;;;;6.45;1.35;;;15.90;1.00;;;;;;5092193;28;20105;-36
2022/12/30 04:56:32;;;;;;;7.10;1.50;;;15.90;1.00;;;;;;5092475;28;20036;-36
2022/12/30 04:58:59;;;;;;;8.63;1.70;;;15.80;1.00;;;;;;5092450;28;20040;-36
2022/12/30 05:01:26;;;;;;;12.88;1.60;;;15.80;1.00;;;;;;5092170;28;20453;-36
2022/12/30 05:03:53;;;;;;;11.05;1.75;;;15.80;1.00;;;;;;5091663;28;20173;-36
2022/12/30 05:06:20;;;;;;;8.45;1.75;;;15.80;1.00;;;;;;5092319;28;20048;-38
2022/12/30 05:08:47;;;;;;;8.93;1.63;;;15.80;1.00;;;;;;5092263;28;20624;-37
2022/12/30 05:11:13;;;;;;;4.63;1.73;;;15.80;1.00;;;;;;5092168;28;20495;-37
2022/12/30 05:13:40;;;;;;;4.63;2.15;;;15.80;1.00;;;;;;5075527;28;20044;-36
2022/12/30 05:16:13;;;;;;;8.85;1.85;;;15.80;1.00;;;;;;5077545;28;20085;-36
2022/12/30 05:18:40;;;;;;;5.03;1.27;;;15.80;1.00;;;;;;5071878;28;20546;-36
2022/12/30 05:21:07;;;;;;;7.32;2.10;;;15.80;1.00;;;;;;5072020;28;20071;-36
2022/12/30 05:26:20;;;;;;;6.90;1.88;;;15.80;1.00;;;;;;5071470;28;20072;-36
2022/12/30 05:28:48;;;;;;;12.50;3.17;;;15.80;1.00;;;;;;5071856;28;20097;-37
2022/12/30 05:31:17;;;;;;;7.80;2.50;;;15.70;1.00;;;;;;5071760;28;20496;-37
2022/12/30 05:33:45;;;;;;;9.40;2.30;;;15.70;1.00;;;;;;5053334;28;20044;-37
2022/12/30 05:36:12;;;;;;;7.07;2.15;;;15.70;1.00;;;;;;5071719;28;20040;-37
2022/12/30 05:38:39;;;;;;;10.20;1.90;;;15.70;1.00;;;;;;5071814;28;20044;-37
2022/12/30 05:41:07;;;;;;;8.40;1.60;;;15.70;1.00;;;;;;5071644;28;20580;-37
2022/12/30 05:43:44;;;;;;;6.45;1.90;;;15.70;1.00;;;;;;5071447;28;20072;-37
2022/12/30 05:46:11;;;;;;;8.73;2.13;;;15.70;1.00;;;;;;5053889;28;20036;-37
2022/12/30 05:48:38;;;;;;;7.45;1.40;;;15.70;1.00;;;;;;5071799;28;20049;-37
2022/12/30 05:51:05;;;;;;;18.05;2.30;;;15.70;1.00;;;;;;5071605;28;20504;-37
2022/12/30 05:53:32;;;;;;;9.68;1.98;;;15.70;1.00;;;;;;5069169;28;20044;-37
2022/12/30 05:55:59;;;;;;;11.90;2.47;;;15.60;1.00;;;;;;5079728;28;20412;-37
2022/12/30 05:58:26;;;;;;;8.40;1.73;;;15.70;1.00;;;;;;5089694;28;20040;-37
2022/12/30 06:00:53;;;;;;;8.20;2.10;;;15.60;1.00;;;;;;5090637;28;20047;-37
2022/12/30 06:03:19;;;;;;;6.82;2.33;;;15.60;1.00;;;;;;5091351;28;20044;-37
2022/12/30 06:05:46;;;;;;;5.57;1.50;;;15.60;1.00;;;;;;5091611;28;20040;-36
2022/12/30 06:08:13;;;;;;;11.82;2.10;;;15.60;1.00;;;;;;5091603;28;20040;-37
2022/12/30 06:10:40;;;;;;;9.32;2.00;;;15.60;1.00;;;;;;5073450;28;20048;-37
2022/12/30 06:13:07;;;;;;;10.43;1.88;;;15.60;1.00;;;;;;5091231;28;20122;-36
2022/12/30 06:15:34;;;;;;;7.93;1.77;;;15.60;1.00;;;;;;5093568;28;20511;-36
2022/12/30 06:18:00;;;;;;;7.25;2.17;;;15.60;1.00;;;;;;5077273;28;20040;-37
2022/12/30 06:20:27;;;;;;;8.63;1.75;;;15.60;1.00;;;;;;5095177;28;20036;-37
2022/12/30 06:22:54;;;;;;;8.82;1.73;;;15.60;1.00;;;;;;5095135;28;20040;-37
2022/12/30 06:25:20;;;;;;;7.88;1.48;;;15.60;1.00;;;;;;5095492;28;20451;-37
2022/12/30 06:27:47;;;;;;;7.20;2.10;;;15.60;1.00;;;;;;5095421;28;20083;-37
2022/12/30 06:30:14;;;;;;;9.13;1.70;;;15.60;1.00;;;;;;5095151;28;20126;-37
2022/12/30 06:32:41;;;;;;;7.03;2.47;;;15.60;1.00;;;;;;5094666;28;20052;-36
2022/12/30 06:35:08;;;;;;;5.47;1.52;;;15.50;1.00;;;;;;5095043;28;20507;-37
2022/12/30 06:37:35;;;;;;;4.45;1.50;;;15.60;1.00;;;;;;5095042;28;20044;-37
2022/12/30 06:40:03;;;;;;;6.97;2.10;;;15.50;1.00;;;;;;5095084;28;20036;-37
2022/12/30 06:42:30;;;;;;;10.38;1.83;;;15.50;1.00;;;;;;5094753;28;20040;-37
2022/12/30 06:44:57;;;;;;;7.68;1.50;;;15.50;1.00;;;;;;5094709;28;20040;-37
2022/12/30 06:47:23;;;;;;;7.25;1.25;;;15.50;1.00;;;;;;5094961;28;20522;-37
2022/12/30 06:49:50;;;;;;;8.82;1.77;;;15.50;1.00;;;;;;5094724;28;20109;-38
2022/12/30 06:52:17;;;;;;;8.57;2.38;;;15.50;1.00;;;;;;5094613;28;20046;-37
2022/12/30 06:54:44;;;;;;;6.10;1.40;;;15.50;1.00;;;;;;5094510;28;20036;-38
2022/12/30 06:57:10;;;;;;;7.50;1.95;;;15.50;1.00;;;;;;5076485;28;20093;-37
2022/12/30 06:59:37;;;;;;;6.80;1.73;;;15.50;1.00;;;;;;5094903;28;20044;-38
2022/12/30 07:02:04;;;;;;;10.98;1.98;;;15.50;1.00;;;;;;5076290;28;20090;-37
2022/12/30 07:04:31;;;;;;;6.32;1.75;;;15.40;1.00;;;;;;5094252;28;20479;-36
2022/12/30 07:06:58;;;;;;;3.15;1.10;;;15.50;1.00;;;;;;5094727;28;20097;-37
2022/12/30 07:09:24;;;;;;;5.80;1.40;;;15.40;1.00;;;;;;5094563;28;20061;-37
2022/12/30 07:11:51;;;;;;;5.50;1.60;;;15.40;1.00;;;;;;5094588;28;20609;-37
2022/12/30 07:14:18;;;;;;;4.93;1.45;;;15.40;1.00;;;;;;5093909;28;20089;-37
2022/12/30 07:16:45;;;;;;;5.68;1.70;;;15.40;1.00;;;;;;5076141;28;20491;-37
2022/12/30 07:19:12;;;;;;;6.43;1.30;;;15.40;1.00;;;;;;5094437;28;20040;-37
2022/12/30 07:21:38;;;;;;;5.78;1.67;;;15.40;1.00;;;;;;5094388;28;20388;-37
2022/12/30 07:24:07;;;;;;;4.30;1.20;;;15.40;1.00;;;;;;5093929;28;20064;-36
2022/12/30 07:26:34;;;;;;;6.18;1.48;;;15.40;1.00;;;;;;5094031;28;20407;-37
2022/12/30 07:29:00;;;;;;;5.95;2.00;;;15.40;1.00;;;;;;5094220;28;20060;-36
2022/12/30 07:31:27;;;;;;;5.43;1.27;;;15.40;1.00;;;;;;5093937;28;20040;-37
2022/12/30 07:33:54;;;;;;;4.93;1.77;;;15.40;1.00;;;;;;5093579;28;20066;-36
2022/12/30 07:36:21;;;;;;;3.47;1.20;;;15.30;1.00;;;;;;5093734;28;20044;-36
2022/12/30 07:38:47;;;;;;;2.35;0.93;;;15.30;1.00;;;;;;5090620;28;20142;-37
2022/12/30 07:41:14;;;;;;;7.90;1.60;;;15.40;1.00;;;;;;5070563;28;20114;-37
2022/12/30 07:43:41;;;;;;;3.90;1.60;;;15.30;1.00;;;;;;5088236;28;20511;-35
2022/12/30 07:46:08;;;;;;;4.43;1.50;;;15.30;1.00;;;;;;5092421;28;20048;-36
2022/12/30 07:48:36;;;;;;;4.80;1.25;;;15.30;1.00;;;;;;5093603;28;20044;-36
2022/12/30 07:51:10;;;;;;;4.03;1.30;;;15.30;1.00;;;;;;5093548;28;20048;-37
2022/12/30 07:53:38;;;;;;;4.60;1.23;;;15.30;1.00;;;;;;5093258;28;20066;-36
2022/12/30 07:56:06;;;;;;;4.50;1.42;;;15.30;1.00;;;;;;5093337;28;20036;-37
2022/12/30 07:58:33;;;;;;;5.45;1.73;;;15.30;1.00;;;;;;5093665;28;20063;-36
2022/12/30 08:01:12;;;;;;;3.40;0.98;;;15.30;1.00;;;;;;5090719;28;20043;-37
2022/12/30 08:03:43;;;;;;;4.47;2.00;;;15.20;1.00;;;;;;5088343;28;20082;-36
2022/12/30 08:06:13;;;;;;;7.38;1.58;;;15.20;1.00;;;;;;5087344;28;20036;-36
2022/12/30 08:08:41;;;;;;;2.95;1.00;;;15.20;1.00;;;;;;5092571;28;20075;-37
2022/12/30 08:11:09;;;;;;;9.65;1.90;;;15.20;1.00;;;;;;5093222;28;20086;-36
2022/12/30 08:13:38;;;;;;;2.85;1.20;;;15.20;1.00;;;;;;5092578;28;20082;-37
2022/12/30 08:16:07;;;;;;;4.43;1.00;;;15.20;1.00;;;;;;5093223;28;20085;-36
2022/12/30 08:18:34;;;;;;;3.85;1.30;;;15.30;1.00;;;;;;5093101;28;20469;-35
2022/12/30 08:21:04;;;;;;;6.63;1.23;;;15.20;1.00;;;;;;5092952;28;20047;-36
2022/12/30 08:23:31;;;;;;;3.67;1.08;;;15.20;1.00;;;;;;5092599;28;20043;-37
2022/12/30 08:26:10;;;;;;;5.13;1.30;;;15.20;1.00;;;;;;5092961;28;20036;-37
2022/12/30 08:28:37;;;;;;;5.20;1.60;;;15.20;1.00;;;;;;5092914;28;20419;-36
2022/12/30 08:31:09;;;;;;;5.57;0.93;;;15.20;1.00;;;;;;5092807;28;20101;-36
2022/12/30 08:33:36;;;;;;;6.70;2.58;;;15.20;1.00;;;;;;5092410;28;20044;-36
2022/12/30 08:36:07;;;;;;;4.55;1.20;;;15.20;1.00;;;;;;5092810;28;20048;-36
2022/12/30 08:38:39;;;;;;;5.47;2.47;;;15.20;1.00;;;;;;5092135;28;20040;-36
2022/12/30 08:41:09;;;;;;;5.75;1.88;;;15.20;1.00;;;;;;5092794;28;20032;-36
2022/12/30 08:43:35;;;;;;;4.72;1.25;;;15.10;1.00;;;;;;5092417;28;20040;-37
2022/12/30 08:46:03;;;;;;;10.45;1.95;;;15.20;1.00;;;;;;5092581;28;20044;-37
2022/12/30 08:48:30;;;;;;;3.47;1.33;;;15.20;1.00;;;;;;5092406;28;20123;-37
2022/12/30 08:50:58;;;;;;;6.57;2.03;;;15.10;1.00;;;;;;5074638;28;20043;-39
2022/12/30 08:53:33;;;;;;;4.18;1.25;;;15.10;1.00;;;;;;5074472;28;20331;-42
2022/12/30 08:56:04;;;;;;;5.65;1.48;;;15.10;1.00;;;;;;5058267;28;20053;-35
2022/12/30 08:58:32;;;;;;;3.38;1.13;;;15.10;1.00;;;;;;5069814;28;20045;-35
2022/12/30 09:01:05;;;;;;;8.10;1.83;;;15.10;1.00;;;;;;5072143;28;20154;-35
2022/12/30 09:03:32;;;;;;;5.55;1.42;;;15.10;1.00;;;;;;5070437;28;20399;-36
2022/12/30 09:05:59;;;;;;;5.25;1.35;;;15.10;1.00;;;;;;5072048;28;20037;-36
2022/12/30 09:08:28;;;;;;;3.97;1.85;;;15.10;1.00;;;;;;5070728;28;20567;-36
2022/12/30 09:11:00;;;;;;;7.68;1.60;;;15.10;1.00;;;;;;5072046;28;20396;-36
2022/12/30 09:13:28;;;;;;;2.08;0.95;;;15.10;1.00;;;;;;5071421;28;20045;-36
2022/12/30 09:15:55;;;;;;;4.93;0.88;;;15.10;1.00;;;;;;5071837;28;20515;-36
2022/12/30 09:18:22;;;;;;;6.32;1.17;;;15.10;1.00;;;;;;5071784;28;20044;-36
2022/12/30 09:20:49;;;;;;;4.38;1.17;;;15.10;1.00;;;;;;5071790;28;20075;-36
2022/12/30 09:23:16;;;;;;;7.30;2.13;;;15.00;1.00;;;;;;5071479;28;20055;-38
2022/12/30 09:25:43;;;;;;;3.50;1.45;;;15.00;1.00;;;;;;5071749;28;20045;-37
2022/12/30 09:28:10;;;;;;;4.60;1.70;;;15.00;1.00;;;;;;5071753;28;20412;-39
2022/12/30 09:30:37;;;;;;;6.70;1.60;;;15.00;1.00;;;;;;5071773;28;20060;-35
2022/12/30 09:33:04;;;;;;;5.88;1.48;;;15.00;1.00;;;;;;5071421;28;20045;-36
2022/12/30 09:35:31;;;;;;;3.60;1.27;;;15.00;1.00;;;;;;5071699;28;20041;-36
2022/12/30 09:37:58;;;;;;;3.08;1.15;;;15.00;1.00;;;;;;5071788;28;20075;-37
2022/12/30 09:41:01;;;;;;;4.43;0.85;;;15.00;1.00;;;;;;5071921;28;20458;-36
2022/12/30 09:43:46;;;;;;;3.63;1.70;;;15.00;1.00;;;;;;5071258;28;20723;-37
2022/12/30 09:46:24;;;;;;;4.43;1.20;;;15.00;1.00;;;;;;5071564;28;20045;-37
2022/12/30 09:49:12;;;;;;;5.63;2.17;;;15.00;1.00;;;;;;5072587;28;20068;-36
2022/12/30 09:51:45;;;;;;;4.38;1.40;;;15.00;1.00;;;;;;5075703;28;20072;-36
2022/12/30 09:54:16;;;;;;;2.88;1.60;;;15.00;1.00;;;;;;5074941;28;20132;-37
2022/12/30 09:56:46;;;;;;;3.65;0.98;;;14.90;1.00;;;;;;5057386;28;20143;-37
2022/12/30 09:59:27;;;;;;;4.88;1.40;;;15.00;1.00;;;;;;5075581;28;20040;-37
2022/12/30 10:02:04;;;;;;;4.18;1.58;;;15.00;1.00;;;;;;5057462;28;20048;-36
2022/12/30 10:04:37;;;;;;;4.93;1.92;;;15.00;1.00;;;;;;5075091;28;20110;-38
2022/12/30 10:07:27;;;;;;;6.18;1.08;;;15.00;1.00;;;;;;5075404;28;20586;-38
2022/12/30 10:10:22;;;;;;;4.72;1.85;;;14.90;1.00;;;;;;5067531;28;20067;-37
2022/12/30 10:13:01;;;;;;;4.13;1.25;;;15.00;1.00;;;;;;5074913;28;20041;-37
2022/12/30 10:15:43;;;;;;;2.40;1.25;;;14.90;1.00;;;;;;5075214;28;20037;-37
2022/12/30 10:18:32;;;;;;;5.18;2.00;;;14.90;1.00;;;;;;5075182;28;20036;-36
2022/12/30 10:21:18;;;;;;;5.55;1.58;;;14.90;1.00;;;;;;5075065;28;20090;-37
2022/12/30 10:23:59;;;;;;;4.28;1.15;;;14.90;1.00;;;;;;5073274;28;20040;-37
2022/12/30 10:26:35;;;;;;;3.13;1.20;;;14.90;1.00;;;;;;5074874;28;20124;-37
2022/12/30 10:29:29;;;;;;;4.50;1.30;;;14.90;1.00;;;;;;5075066;28;20052;-37
2022/12/30 10:31:57;;;;;;;;;;;14.90;1.00;;;;;;5075248;28;20049;-35
2022/12/30 10:34:28;;;;;;;5.38;1.40;;;14.90;1.00;;;;;;5074559;28;19920;-36
2022/12/30 10:37:00;;;;;;;6.65;1.73;;;14.90;1.00;;;;;;5074838;28;20407;-36
2022/12/30 10:39:45;;;;;;;4.18;1.08;;;14.90;1.00;;;;;;5056903;28;20047;-37
2022/12/30 10:42:32;;;;;;;5.30;1.30;;;14.90;1.00;;;;;;5074711;28;20041;-37
2022/12/30 10:45:18;;;;;;;4.90;1.10;;;14.90;1.00;;;;;;5074544;28;20071;-36
2022/12/30 10:47:50;;;;;;;5.68;1.30;;;14.90;1.00;;;;;;5074638;28;20079;-37
2022/12/30 10:50:40;;;;;;;4.80;1.27;;;14.80;1.00;;;;;;5074863;28;20087;-36
2022/12/30 10:53:21;;;;;;;4.22;1.33;;;14.80;1.00;;;;;;5074258;28;20489;-37
2022/12/30 10:55:54;;;;;;;5.10;0.93;;;14.90;1.00;;;;;;5074577;28;20045;-37
2022/12/30 10:58:35;;;;;;;4.18;1.50;;;14.80;1.00;;;;;;5074324;28;20047;-37
2022/12/30 11:01:01;;;;;;;3.28;1.17;;;14.80;1.00;;;;;;5074066;28;20036;-35
2022/12/30 11:03:31;;;;;;;3.30;1.23;;;14.80;1.00;;;;;;5074019;28;20037;-37
2022/12/30 11:06:16;;;;;;;3.85;1.30;;;14.80;1.00;;;;;;5074446;28;20068;-37
2022/12/30 11:08:42;;;;;;;4.32;1.60;;;14.80;1.00;;;;;;5074255;28;20123;-36
2022/12/30 11:11:10;;;;;;;2.90;0.80;;;14.80;1.00;;;;;;5074160;28;20041;-37
2022/12/30 11:16:28;;;;;;;2.22;1.02;;;14.80;1.00;;;;;;5074124;28;20106;-37
2022/12/30 11:18:58;;;;;;;5.03;1.40;;;14.80;1.00;;;;;;5074148;28;20064;-37
2022/12/30 11:21:28;;;;;;;2.63;1.10;;;14.80;1.00;;;;;;5068844;28;20041;-36
2022/12/30 11:23:57;;;;;;;6.78;1.42;;;14.80;1.00;;;;;;5064252;28;20093;-35
2022/12/30 11:26:26;;;;;;;7.88;2.15;;;14.80;1.00;;;;;;5065436;28;20404;-35
2022/12/30 11:28:56;;;;;;;4.20;1.60;;;14.80;1.00;;;;;;5062382;28;20052;-36
2022/12/30 11:31:42;;;;;;;6.43;1.15;;;14.80;1.00;;;;;;5071999;28;20041;-36
2022/12/30 11:34:19;;;;;;;5.05;1.23;;;14.80;1.00;;;;;;5072925;28;20671;-36
2022/12/30 11:36:46;;;;;;;3.58;1.40;;;14.80;1.00;;;;;;5073770;28;20077;-36
2022/12/30 11:39:22;;;;;;;2.75;1.13;;;14.70;1.00;;;;;;5073782;28;20037;-36
2022/12/30 11:41:51;;;;;;;2.58;1.10;;;14.70;1.00;;;;;;5057965;28;20083;-36
2022/12/30 11:44:24;;;;;;;2.72;1.50;;;14.70;1.00;;;;;;5053247;28;20488;-36
2022/12/30 11:46:54;;;;;;;3.50;1.10;;;14.70;1.00;;;;;;5051879;28;20718;-38
2022/12/30 11:49:21;;;;;;;3.53;1.23;;;14.70;1.00;;;;;;5048941;28;20041;-36
2022/12/30 11:51:50;;;;;;;2.45;0.70;;;14.70;1.00;;;;;;5048768;28;20041;-36
2022/12/30 11:54:39;;;;;;;4.18;1.20;;;14.70;1.00;;;;;;5055635;28;20067;-36
2022/12/30 11:57:19;;;;;;;1.90;1.20;;;14.70;1.00;;;;;;5058743;28;20091;-36
2022/12/30 11:59:49;;;;;;;3.60;0.75;;;14.70;1.00;;;;;;5052713;28;20040;-35
2022/12/30 12:02:19;;;;;;;4.07;1.17;;;14.70;1.00;;;;;;5054191;28;20033;-36
2022/12/30 12:04:46;;;;;;;2.13;0.70;;;14.70;1.00;;;;;;5044014;28;20037;-36
2022/12/30 12:07:15;;;;;;;3.80;0.95;;;14.70;1.00;;;;;;5036507;28;20049;-36
2022/12/30 12:10:23;;;;;;;6.35;1.42;;;14.70;1.00;;;;;;5057482;28;20040;-36
2022/12/30 12:12:57;;;;;;;2.47;0.73;;;14.60;1.00;;;;;;5045711;28;20045;-35
2022/12/30 12:15:44;;;;;;;3.97;0.88;;;14.70;1.00;;;;;;5052845;28;20508;-35
2022/12/30 12:18:28;;;;;;;4.75;1.02;;;14.60;1.00;;;;;;5052927;28;20080;-35
2022/12/30 12:21:14;;;;;;;2.33;0.77;;;14.60;1.00;;;;;;5028980;28;20405;-35
2022/12/30 12:24:03;;;;;;;4.55;1.02;;;14.70;1.00;;;;;;5060019;28;20048;-36
2022/12/30 12:26:31;;;;;;;3.00;0.88;;;14.70;1.00;;;;;;5071773;28;20124;-36
2022/12/30 12:28:59;;;;;;;4.65;0.75;;;14.80;1.00;;;;;;5072834;28;20072;-36
2022/12/30 12:31:44;;;;;;;7.57;0.93;;;14.90;1.00;;;;;;5072572;28;20079;-36
2022/12/30 12:34:32;;;;;;;2.53;0.82;;;15.00;1.00;;;;;;5072456;28;20053;-36
2022/12/30 12:37:25;;;;;;;5.47;1.10;;;15.20;1.00;;;;;;5072474;28;20412;-36
2022/12/30 12:39:52;;;;;;;2.38;1.13;;;15.30;1.00;;;;;;5032659;28;20425;-36
2022/12/30 12:42:45;;;;;;;1.63;0.90;;;15.50;1.00;;;;;;5040329;28;20040;-35
2022/12/30 12:45:38;;;;;;;2.33;0.70;;;15.70;1.00;;;;;;5062524;28;20037;-36
2022/12/30 12:48:23;;;;;;;7.95;1.27;;;15.80;1.00;;;;;;5068003;28;20044;-36
2022/12/30 12:51:25;;;;;;;2.88;0.82;;;16.00;1.00;;;;;;5066708;28;20052;-36
2022/12/30 12:54:23;;;;;;;2.38;0.63;;;16.10;1.00;;;;;;5059378;28;20045;-36
2022/12/30 12:57:36;;;;;;;1.02;0.45;;;16.30;1.00;;;;;;5072043;28;20049;-36
2022/12/30 13:00:10;;;;;;;4.07;1.15;;;16.40;1.00;;;;;;5072074;28;20060;-36
2022/12/30 13:02:55;;;;;;;2.20;0.90;;;16.50;1.00;;;;;;5071913;28;20044;-36
2022/12/30 13:05:28;;;;;;;2.88;1.15;;;16.70;1.00;;;;;;5071892;28;20040;-36
2022/12/30 13:08:27;;;;;;;4.40;0.75;;;16.70;1.00;;;;;;5071975;28;20659;-37
2022/12/30 13:11:03;;;;;;;2.60;0.88;;;16.90;1.00;;;;;;5071865;28;20067;-37
2022/12/30 13:14:07;;;;;;;2.88;0.85;;;17.00;1.00;;;;;;5033500;28;20455;-37
2022/12/30 13:16:39;;;;;;;1.60;0.40;;;17.00;1.00;;;;;;5051779;28;20037;-37
2022/12/30 13:19:16;;;;;;;2.50;0.75;;;17.20;1.00;;;;;;5043686;28;20476;-37
2022/12/30 13:21:45;;;;;;;1.70;0.55;;;17.20;1.00;;;;;;5057281;28;20516;-37
2022/12/30 13:24:34;;;;;;;2.45;0.60;;;17.30;1.00;;;;;;5067787;28;20040;-36
2022/12/30 13:27:03;;;;;;;2.38;0.57;;;17.40;1.00;;;;;;5069108;28;20055;-36
2022/12/30 13:29:33;;;;;;;1.55;0.70;;;17.50;1.00;;;;;;5034966;28;20496;-37
2022/12/30 13:32:12;;;;;;;1.60;0.65;;;17.50;1.00;;;;;;5051695;28;20072;-37
2022/12/30 13:34:48;;;;;;;1.95;0.65;;;17.60;1.00;;;;;;5054065;28;20051;-37
2022/12/30 13:37:34;;;;;;;3.22;1.17;;;17.70;1.00;;;;;;5063263;28;20071;-37
2022/12/30 13:40:06;;;;;;;3.60;0.77;;;17.70;1.00;;;;;;5066856;28;20040;-37
2022/12/30 13:43:11;;;;;;;4.80;1.70;;;17.80;1.00;;;;;;5063026;28;20048;-37
2022/12/30 13:45:48;;;;;;;3.85;0.57;;;17.80;1.00;;;;;;5065460;28;20512;-37
2022/12/30 13:48:20;;;;;;;1.55;0.40;;;17.80;1.00;;;;;;5063316;28;20049;-36
2022/12/30 13:51:03;;;;;;;1.13;0.65;;;17.90;1.00;;;;;;5071589;28;20154;-37
2022/12/30 13:53:35;;;;;;;4.27;1.40;;;17.90;1.00;;;;;;5071197;28;20045;-37
2022/12/30 13:56:03;;;;;;;2.63;1.10;;;17.90;1.00;;;;;;5071561;28;20052;-37
2022/12/30 13:58:51;;;;;;;2.75;0.63;;;17.90;1.00;;;;;;5063240;28;20086;-36
2022/12/30 14:01:25;;;;;;;2.35;0.70;;;18.00;1.00;;;;;;5068858;28;20052;-37
2022/12/30 14:04:12;;;;;;;3.72;0.80;;;17.90;1.00;;;;;;5070936;28;20040;-37
2022/12/30 14:06:48;;;;;;;6.15;0.95;;;17.90;1.00;;;;;;5071283;28;20492;-37
2022/12/30 14:09:23;;;;;;;2.08;0.85;;;17.90;1.00;;;;;;5053690;28;20052;-37
2022/12/30 14:12:30;;;;;;;3.53;0.95;;;17.80;1.00;;;;;;5067389;28;20455;-37
2022/12/30 14:15:00;;;;;;;2.78;0.93;;;17.80;1.00;;;;;;5033867;28;20053;-37
2022/12/30 14:17:33;;;;;;;3.92;0.88;;;17.80;1.00;;;;;;5051200;28;20131;-37
2022/12/30 14:20:05;;;;;;;3.17;0.80;;;17.80;1.00;;;;;;5050988;28;20128;-36